Nearby METAR Reports

 

EGDR - Culdrose (navy), United Kingdom
Distance from station: S 10mi, 17km
Updated: 08/03/2021 21:24
Few Clouds
Few Clouds
 Wind from NW
Wind: NW 5 mph , 7 km/h
Temperature: 3°C
Wind Chill: 1°C
Dew Point: 0°C
Humidity: 81%
Barometer: 1024 hPa
Clouds: Few Clouds
Visibility: 6 miles , 10 km
Cloud details: Few Clouds 914 m
2021/03/08 21:24 EGDR 082124Z 32004KT 9999 FEW030 03/00 Q1024 NOSIG RMK BLU BLU
EGHQ - Newquay, United Kingdom
Distance from station: NE 17mi, 27km
Updated: 08/03/2021 21:50
Clear
Clear
 Wind from N
Wind: N 2 mph , 4 km/h
Temperature: 4°C
Dew Point: 1°C
Humidity: 81%
Barometer: 1024 hPa
Clouds: Clear
Visibility: 6 miles , 10 km
2021/03/08 21:50 EGHQ 082150Z AUTO 35002KT 9999 NCD 04/01 Q1024
 
EGHC - Lands End, United Kingdom
Distance from station: WSW 22mi, 35km
Updated: 08/03/2021 16:50
NOT Current

 
Visibility: 2 miles , 3 km
2021/03/08 16:50 EGHC 081650Z 3007KT 280V350 9999 FEW028 06/00 Q1023